createdAt,value
2022-10-11T00:01:09.503Z,95563.06
2022-10-11T00:03:36.159Z,95559.72
2022-10-11T00:06:02.908Z,95565.03
2022-10-11T00:08:29.765Z,95561.53
2022-10-11T00:10:58.684Z,95562.31
2022-10-11T00:13:25.320Z,95566.56
2022-10-11T00:15:51.952Z,95570.28
2022-10-11T00:18:18.458Z,95569.00
2022-10-11T00:20:44.899Z,95572.50
2022-10-11T00:23:11.490Z,95577.75
2022-10-11T00:25:37.975Z,95583.22
2022-10-11T00:28:04.749Z,95585.22
2022-10-11T00:30:31.893Z,95583.81
2022-10-11T00:32:58.395Z,95588.84
2022-10-11T00:35:25.370Z,95578.53
2022-10-11T00:37:52.381Z,95580.06
2022-10-11T00:40:20.268Z,95580.84
2022-10-11T00:42:46.754Z,95575.75
2022-10-11T00:45:31.918Z,95585.78
2022-10-11T00:48:03.242Z,95577.22
2022-10-11T00:50:31.736Z,95576.94
2022-10-11T00:53:01.858Z,95573.09
2022-10-11T00:55:35.218Z,95575.66
2022-10-11T00:58:01.855Z,95572.19
2022-10-11T01:00:28.393Z,95568.03
2022-10-11T01:02:55.072Z,95572.13
2022-10-11T01:05:30.287Z,95576.53
2022-10-11T01:07:59.407Z,95572.00
2022-10-11T01:10:27.202Z,95580.19
2022-10-11T01:12:59.499Z,95572.09
2022-10-11T01:15:32.385Z,95579.28
2022-10-11T01:18:06.855Z,95569.22
2022-10-11T01:20:42.839Z,95575.09
2022-10-11T01:23:24.201Z,95566.28
2022-10-11T01:26:14.480Z,95568.03
2022-10-11T01:29:08.536Z,95571.38
2022-10-11T01:31:40.563Z,95559.25
2022-10-11T01:34:31.188Z,95565.59
2022-10-11T01:36:57.546Z,95559.81
2022-10-11T01:39:25.324Z,95558.66
2022-10-11T01:41:55.964Z,95562.47
2022-10-11T01:44:24.319Z,95560.63
2022-10-11T01:46:51.966Z,95563.22
2022-10-11T01:49:18.527Z,95562.38
2022-10-11T01:51:47.770Z,95558.00
2022-10-11T01:55:04.383Z,95555.25
2022-10-11T01:57:53.412Z,95554.41
2022-10-11T02:00:23.079Z,95548.06
2022-10-11T02:03:10.896Z,95554.75
2022-10-11T02:05:56.578Z,95559.03
2022-10-11T02:08:36.955Z,95550.25
2022-10-11T02:11:23.110Z,95546.34
2022-10-11T02:13:54.702Z,95546.53
2022-10-11T02:16:31.516Z,95551.97
2022-10-11T02:18:58.692Z,95542.47
2022-10-11T02:21:27.605Z,95552.28
2022-10-11T02:24:00.160Z,95539.81
2022-10-11T02:26:29.364Z,95539.94
2022-10-11T02:28:57.822Z,95543.56
2022-10-11T02:31:25.145Z,95547.72
2022-10-11T02:34:27.584Z,95537.66
2022-10-11T02:37:16.706Z,95533.03
2022-10-11T02:40:16.651Z,95535.91
2022-10-11T02:42:46.411Z,95540.28
2022-10-11T02:45:25.621Z,95544.59
2022-10-11T02:47:52.587Z,95537.53
2022-10-11T02:50:19.230Z,95542.75
2022-10-11T02:52:45.741Z,95532.00
2022-10-11T02:55:12.206Z,95531.97
2022-10-11T02:57:38.723Z,95542.59
2022-10-11T03:00:06.077Z,95534.16
2022-10-11T03:02:32.562Z,95537.41
2022-10-11T03:04:58.994Z,95540.75
2022-10-11T03:07:26.355Z,95537.06
2022-10-11T03:09:52.901Z,95538.78
2022-10-11T03:12:19.453Z,95543.88
2022-10-11T03:14:45.906Z,95545.59
2022-10-11T03:17:35.001Z,95545.03
2022-10-11T03:19:58.837Z,95546.31
2022-10-11T03:22:25.362Z,95540.41
2022-10-11T03:24:51.803Z,95544.91
2022-10-11T03:27:18.279Z,95539.94
2022-10-11T03:29:44.744Z,95543.31
2022-10-11T03:32:11.203Z,95544.47
2022-10-11T03:34:37.665Z,95548.41
2022-10-11T03:37:04.182Z,95541.34
2022-10-11T03:39:30.746Z,95551.06
2022-10-11T03:41:57.196Z,95547.59
2022-10-11T03:44:23.706Z,95553.03
2022-10-11T03:46:50.285Z,95553.84
2022-10-11T03:49:16.953Z,95551.75
2022-10-11T03:51:43.470Z,95555.94
2022-10-11T03:54:09.958Z,95557.31
2022-10-11T03:56:36.427Z,95561.13
2022-10-11T03:59:02.944Z,95558.72
2022-10-11T04:01:29.473Z,95553.03
2022-10-11T04:03:56.884Z,95553.03
2022-10-11T04:06:23.688Z,95550.81
2022-10-11T04:08:50.211Z,95557.06
2022-10-11T04:11:16.661Z,95549.44
2022-10-11T04:13:43.204Z,95560.31
2022-10-11T04:16:09.668Z,95558.47
2022-10-11T04:18:36.138Z,95552.91
2022-10-11T04:21:02.698Z,95553.72
2022-10-11T04:23:31.342Z,95556.50
2022-10-11T04:25:57.956Z,95556.44
2022-10-11T04:28:24.753Z,95555.81
2022-10-11T04:30:51.997Z,95557.31
2022-10-11T04:33:18.504Z,95557.84
2022-10-11T04:35:46.189Z,95559.63
2022-10-11T04:38:12.743Z,95560.78
2022-10-11T04:40:39.530Z,95564.16
2022-10-11T04:43:06.473Z,95567.84
2022-10-11T04:45:33.062Z,95566.09
2022-10-11T04:48:00.047Z,95569.66
2022-10-11T04:50:26.671Z,95570.78
2022-10-11T04:52:53.501Z,95570.63
2022-10-11T04:55:20.071Z,95567.03
2022-10-11T04:57:46.703Z,95571.06
2022-10-11T05:00:13.606Z,95572.25
2022-10-11T05:02:40.058Z,95568.97
2022-10-11T05:05:07.091Z,95568.19
2022-10-11T05:07:33.520Z,95572.44
2022-10-11T05:09:59.952Z,95569.28
2022-10-11T05:12:26.433Z,95570.03
2022-10-11T05:14:52.996Z,95573.63
2022-10-11T05:17:19.431Z,95572.16
2022-10-11T05:19:45.916Z,95568.94
2022-10-11T05:22:12.385Z,95566.84
2022-10-11T05:24:38.853Z,95566.28
2022-10-11T05:27:05.746Z,95573.53
2022-10-11T05:29:32.271Z,95573.78
2022-10-11T05:31:59.679Z,95569.69
2022-10-11T05:34:26.336Z,95576.41
2022-10-11T05:36:52.896Z,95578.84
2022-10-11T05:39:19.428Z,95582.41
2022-10-11T05:41:46.454Z,95588.47
2022-10-11T05:44:13.366Z,95584.59
2022-10-11T05:46:39.889Z,95579.72
2022-10-11T05:49:06.518Z,95588.09
2022-10-11T05:51:35.949Z,95582.16
2022-10-11T05:54:02.392Z,95584.53
2022-10-11T05:56:28.847Z,95581.59
2022-10-11T05:58:59.909Z,95584.53
2022-10-11T06:01:28.669Z,95579.59
2022-10-11T06:03:55.285Z,95583.38
2022-10-11T06:06:21.981Z,95592.31
2022-10-11T06:08:48.971Z,95597.88
2022-10-11T06:11:18.484Z,95597.53
2022-10-11T06:13:45.131Z,95596.75
2022-10-11T06:16:11.931Z,95603.91
2022-10-11T06:18:38.380Z,95602.84
2022-10-11T06:21:05.147Z,95609.22
2022-10-11T06:23:31.881Z,95609.47
2022-10-11T06:26:03.704Z,95613.69
2022-10-11T06:28:30.586Z,95610.47
2022-10-11T06:30:57.565Z,95611.88
2022-10-11T06:33:24.385Z,95610.16
2022-10-11T06:35:57.532Z,95610.50
2022-10-11T06:38:23.989Z,95606.34
2022-10-11T06:40:50.442Z,95610.38
2022-10-11T06:43:16.910Z,95615.13
2022-10-11T06:45:43.360Z,95617.66
2022-10-11T06:48:09.853Z,95618.22
2022-10-11T06:50:58.577Z,95629.94
2022-10-11T06:53:24.543Z,95626.69
2022-10-11T06:55:50.991Z,95626.34
2022-10-11T06:58:17.502Z,95625.78
2022-10-11T07:00:44.101Z,95626.47
2022-10-11T07:03:10.567Z,95627.97
2022-10-11T07:05:37.003Z,95638.28
2022-10-11T07:08:03.626Z,95638.94
2022-10-11T07:10:30.079Z,95638.81
2022-10-11T07:12:56.506Z,95639.66
2022-10-11T07:15:23.037Z,95646.78
2022-10-11T07:17:49.498Z,95636.03
2022-10-11T07:20:15.964Z,95645.28
2022-10-11T07:22:42.405Z,95635.06
2022-10-11T07:25:08.930Z,95642.69
2022-10-11T07:27:35.409Z,95640.88
2022-10-11T07:30:01.860Z,95632.28
2022-10-11T07:32:28.299Z,95634.50
2022-10-11T07:34:54.770Z,95639.41
2022-10-11T07:37:21.205Z,95639.59
2022-10-11T07:39:49.214Z,95639.91
2022-10-11T07:42:15.671Z,95639.50
2022-10-11T07:44:42.218Z,95632.06
2022-10-11T07:47:11.280Z,95638.44
2022-10-11T07:49:38.110Z,95634.97
2022-10-11T07:52:04.866Z,95634.94
2022-10-11T07:54:31.454Z,95635.69
2022-10-11T07:56:57.903Z,95633.34
2022-10-11T07:59:24.403Z,95634.56
2022-10-11T08:01:50.992Z,95638.38
2022-10-11T08:04:17.613Z,95641.59
2022-10-11T08:06:44.085Z,95643.09
2022-10-11T08:09:10.635Z,95640.63
2022-10-11T08:11:37.790Z,95646.31
2022-10-11T08:14:05.918Z,95638.81
2022-10-11T08:16:32.427Z,95645.78
2022-10-11T08:18:58.915Z,95647.69
2022-10-11T08:21:25.405Z,95646.88
2022-10-11T08:23:51.852Z,95644.56
2022-10-11T08:26:18.325Z,95644.06
2022-10-11T08:28:44.933Z,95646.03
2022-10-11T08:31:13.364Z,95648.22
2022-10-11T08:33:40.308Z,95645.38
2022-10-11T08:36:07.755Z,95642.66
2022-10-11T08:38:36.230Z,95643.19
2022-10-11T08:41:02.754Z,95648.28
2022-10-11T08:43:46.089Z,95648.22
2022-10-11T08:46:14.271Z,95642.19
2022-10-11T08:48:42.111Z,95643.66
2022-10-11T08:51:23.296Z,95645.38
2022-10-11T08:54:28.174Z,95646.69
2022-10-11T08:56:54.811Z,95643.09
2022-10-11T08:59:30.788Z,95647.81
2022-10-11T09:02:04.938Z,95645.06
2022-10-11T09:04:31.408Z,95643.72
2022-10-11T09:07:20.013Z,95642.53
2022-10-11T09:09:56.128Z,95648.34
2022-10-11T09:12:56.185Z,95647.47
2022-10-11T09:15:25.551Z,95651.63
2022-10-11T09:17:57.860Z,95639.91
2022-10-11T09:20:52.974Z,95645.31
2022-10-11T09:23:35.122Z,95642.22
2022-10-11T09:26:06.573Z,95639.53
2022-10-11T09:28:47.413Z,95643.03
2022-10-11T09:31:13.913Z,95640.38
2022-10-11T09:33:45.558Z,95639.72
2022-10-11T09:36:27.415Z,95643.47
2022-10-11T09:38:56.723Z,95642.03
2022-10-11T09:41:38.264Z,95638.56
2022-10-11T09:44:06.680Z,95638.94
2022-10-11T09:46:40.605Z,95638.38
2022-10-11T09:49:14.546Z,95639.19
2022-10-11T09:51:46.584Z,95633.47
2022-10-11T09:54:13.069Z,95633.22
2022-10-11T09:56:44.399Z,95630.06
2022-10-11T09:59:29.117Z,95631.75
2022-10-11T10:02:08.028Z,95635.22
2022-10-11T10:04:35.447Z,95637.50
2022-10-11T10:07:12.071Z,95637.56
2022-10-11T10:09:38.606Z,95635.88
2022-10-11T10:12:12.287Z,95641.00
2022-10-11T10:14:40.545Z,95639.22
2022-10-11T10:17:15.841Z,95635.31
2022-10-11T10:19:48.347Z,95626.53
2022-10-11T10:22:20.661Z,95629.03
2022-10-11T10:24:48.210Z,95629.94
2022-10-11T10:27:14.642Z,95633.75
2022-10-11T10:29:41.457Z,95631.66
2022-10-11T10:32:15.321Z,95623.16
2022-10-11T10:34:55.403Z,95623.66
2022-10-11T10:37:28.085Z,95629.88
2022-10-11T10:40:22.636Z,95629.00
2022-10-11T10:42:50.030Z,95623.03
2022-10-11T10:45:21.496Z,95625.25
2022-10-11T10:47:57.266Z,95619.91
2022-10-11T10:50:32.836Z,95620.53
2022-10-11T10:53:34.740Z,95619.25
2022-10-11T10:56:28.269Z,95616.13
2022-10-11T10:59:10.427Z,95613.75
2022-10-11T11:01:50.271Z,95624.03
2022-10-11T11:04:16.618Z,95629.94
2022-10-11T11:07:03.251Z,95623.84
2022-10-11T11:09:53.850Z,95626.69
2022-10-11T11:12:36.327Z,95614.66
2022-10-11T11:15:04.244Z,95621.34
2022-10-11T11:17:53.338Z,95611.69
2022-10-11T11:20:41.484Z,95610.13
2022-10-11T11:23:21.093Z,95617.66
2022-10-11T11:26:04.331Z,95608.50
2022-10-11T11:28:52.553Z,95608.94
2022-10-11T11:31:33.375Z,95599.78
2022-10-11T11:34:17.788Z,95604.16
2022-10-11T11:36:54.792Z,95605.28
2022-10-11T11:39:31.029Z,95601.59
2022-10-11T11:42:19.486Z,95611.75
2022-10-11T11:44:47.653Z,95601.81
2022-10-11T11:47:29.436Z,95606.41
2022-10-11T11:49:59.549Z,95599.50
2022-10-11T11:52:35.432Z,95602.19
2022-10-11T11:55:08.545Z,95602.75
2022-10-11T11:57:53.893Z,95597.91
2022-10-11T12:00:22.417Z,95595.22
2022-10-11T12:02:57.927Z,95591.50
2022-10-11T12:05:31.121Z,95596.59
2022-10-11T12:08:01.428Z,95589.34
2022-10-11T12:10:52.870Z,95588.00
2022-10-11T12:13:22.592Z,95588.25
2022-10-11T12:16:03.644Z,95588.00
2022-10-11T12:18:31.062Z,95585.59
2022-10-11T12:21:17.584Z,95585.56
2022-10-11T12:23:47.182Z,95579.97
2022-10-11T12:26:28.925Z,95572.66
2022-10-11T12:29:39.588Z,95573.22
2022-10-11T12:32:05.971Z,95567.84
2022-10-11T12:37:17.465Z,95568.41
2022-10-11T12:39:53.814Z,95560.31
2022-10-11T12:42:25.604Z,95561.44
2022-10-11T12:45:21.259Z,95554.94
2022-10-11T12:48:13.265Z,95549.31
2022-10-11T12:51:03.255Z,95543.94
2022-10-11T12:53:37.591Z,95540.16
2022-10-11T12:56:40.876Z,95540.59
2022-10-11T12:59:17.040Z,95532.28
2022-10-11T13:01:57.628Z,95545.72
2022-10-11T13:04:29.240Z,95543.00
2022-10-11T13:07:05.877Z,95544.81
2022-10-11T13:09:41.582Z,95534.94
2022-10-11T13:12:15.321Z,95543.28
2022-10-11T13:14:44.617Z,95542.97
2022-10-11T13:17:25.254Z,95539.22
2022-10-11T13:20:05.357Z,95533.25
2022-10-11T13:22:34.128Z,95529.69
2022-10-11T13:25:07.142Z,95532.47
2022-10-11T13:27:33.821Z,95530.56
2022-10-11T13:30:02.494Z,95520.28
2022-10-11T13:32:30.880Z,95523.44
2022-10-11T13:35:24.909Z,95520.34
2022-10-11T13:37:51.783Z,95519.63
2022-10-11T13:40:20.234Z,95514.66
2022-10-11T13:42:47.883Z,95514.44
2022-10-11T13:45:16.935Z,95514.16
2022-10-11T13:47:43.638Z,95507.13
2022-10-11T13:50:16.069Z,95505.03
2022-10-11T13:53:02.584Z,95508.72
2022-10-11T13:55:32.137Z,95506.50
2022-10-11T13:58:00.241Z,95515.53
2022-10-11T14:00:35.707Z,95510.81
2022-10-11T14:03:02.353Z,95501.94
2022-10-11T14:05:34.912Z,95505.28
2022-10-11T14:08:20.096Z,95500.16
2022-10-11T14:10:47.595Z,95496.03
2022-10-11T14:13:32.934Z,95501.66
2022-10-11T14:16:02.453Z,95500.31
2022-10-11T14:18:58.288Z,95497.38
2022-10-11T14:21:43.207Z,95493.59
2022-10-11T14:24:09.944Z,95498.28
2022-10-11T14:26:40.792Z,95505.84
2022-10-11T14:29:27.379Z,95505.25
2022-10-11T14:31:58.911Z,95502.38
2022-10-11T14:34:25.905Z,95498.88
2022-10-11T14:36:55.110Z,95496.72
2022-10-11T14:39:23.665Z,95502.94
2022-10-11T14:41:51.226Z,95497.53
2022-10-11T14:44:18.551Z,95498.34
2022-10-11T14:46:46.196Z,95502.38
2022-10-11T14:49:16.695Z,95496.22
2022-10-11T14:51:44.493Z,95495.13
2022-10-11T14:54:11.441Z,95495.00
2022-10-11T14:56:38.324Z,95490.44
2022-10-11T14:59:04.975Z,95495.56
2022-10-11T15:01:31.561Z,95492.03
2022-10-11T15:03:58.048Z,95491.47
2022-10-11T15:06:27.099Z,95497.84
2022-10-11T15:08:54.268Z,95495.22
2022-10-11T15:11:22.238Z,95492.56
2022-10-11T15:13:51.246Z,95493.28
2022-10-11T15:16:20.558Z,95493.53
2022-10-11T15:18:48.300Z,95489.75
2022-10-11T15:21:14.837Z,95491.91
2022-10-11T15:23:41.482Z,95491.97
2022-10-11T15:26:13.761Z,95488.28
2022-10-11T15:28:40.450Z,95494.69
2022-10-11T15:31:08.299Z,95490.41
2022-10-11T15:33:35.193Z,95493.09
2022-10-11T15:36:01.769Z,95486.13
2022-10-11T15:38:28.589Z,95491.00
2022-10-11T15:40:55.389Z,95482.47
2022-10-11T15:43:24.787Z,95489.72
2022-10-11T15:45:52.016Z,95493.22
2022-10-11T15:48:19.119Z,95488.38
2022-10-11T15:50:46.131Z,95483.81
2022-10-11T15:53:20.916Z,95487.84
2022-10-11T15:55:52.908Z,95485.97
2022-10-11T15:58:23.085Z,95482.50
2022-10-11T16:00:51.819Z,95491.66
2022-10-11T16:03:18.622Z,95496.47
2022-10-11T16:05:45.254Z,95498.09
2022-10-11T16:08:11.854Z,95497.56
2022-10-11T16:10:38.728Z,95497.28
2022-10-11T16:13:05.603Z,95496.47
2022-10-11T16:15:32.072Z,95498.59
2022-10-11T16:17:58.683Z,95498.56
2022-10-11T16:20:27.383Z,95503.13
2022-10-11T16:22:54.455Z,95507.16
2022-10-11T16:25:21.449Z,95506.09
2022-10-11T16:27:47.947Z,95504.97
2022-10-11T16:30:15.356Z,95513.00
2022-10-11T16:32:41.967Z,95518.88
2022-10-11T16:35:08.997Z,95518.56
2022-10-11T16:37:35.638Z,95518.59
2022-10-11T16:40:02.223Z,95523.91
2022-10-11T16:42:28.778Z,95530.03
2022-10-11T16:44:55.528Z,95520.66
2022-10-11T16:47:22.119Z,95523.31
2022-10-11T16:49:48.680Z,95525.47
2022-10-11T16:52:15.337Z,95525.16
2022-10-11T16:54:46.366Z,95526.25
2022-10-11T16:57:18.036Z,95532.22
2022-10-11T16:59:44.565Z,95535.09
2022-10-11T17:02:17.273Z,95543.47
2022-10-11T17:04:44.044Z,95537.50
2022-10-11T17:07:10.596Z,95537.53
2022-10-11T17:09:40.384Z,95534.19
2022-10-11T17:12:11.809Z,95535.72
2022-10-11T17:14:39.462Z,95528.38
2022-10-11T17:17:07.679Z,95527.25
2022-10-11T17:19:34.602Z,95524.22
2022-10-11T17:22:01.058Z,95523.88
2022-10-11T17:24:27.618Z,95523.59
2022-10-11T17:26:54.370Z,95523.06
2022-10-11T17:29:21.196Z,95523.50
2022-10-11T17:31:49.370Z,95518.78
2022-10-11T17:34:16.646Z,95532.81
2022-10-11T17:36:43.155Z,95526.72
2022-10-11T17:39:15.912Z,95537.28
2022-10-11T17:41:43.158Z,95528.34
2022-10-11T17:44:10.430Z,95539.03
2022-10-11T17:46:37.947Z,95540.00
2022-10-11T17:49:08.313Z,95537.16
2022-10-11T17:51:36.409Z,95539.22
2022-10-11T17:54:03.711Z,95542.56
2022-10-11T17:56:33.645Z,95540.31
2022-10-11T17:59:01.644Z,95538.97
2022-10-11T18:01:29.116Z,95545.13
2022-10-11T18:04:01.407Z,95541.13
2022-10-11T18:06:29.897Z,95540.13
2022-10-11T18:08:56.886Z,95536.91
2022-10-11T18:11:23.849Z,95543.97
2022-10-11T18:13:52.562Z,95547.84
2022-10-11T18:16:23.378Z,95550.84
2022-10-11T18:18:49.927Z,95551.09
2022-10-11T18:21:16.940Z,95547.72
2022-10-11T18:23:43.584Z,95558.56
2022-10-11T18:26:15.728Z,95556.13
2022-10-11T18:28:42.970Z,95552.06
2022-10-11T18:31:13.614Z,95549.63
2022-10-11T18:33:41.216Z,95547.53
2022-10-11T18:36:09.247Z,95541.88
2022-10-11T18:38:36.233Z,95543.69
2022-10-11T18:41:10.713Z,95540.69
2022-10-11T18:43:38.371Z,95544.91
2022-10-11T18:46:11.535Z,95545.16
2022-10-11T18:48:42.473Z,95541.56
2022-10-11T18:51:12.250Z,95546.09
2022-10-11T18:53:38.913Z,95537.59
2022-10-11T18:56:07.742Z,95534.06
2022-10-11T18:58:35.611Z,95534.34
2022-10-11T19:01:16.808Z,95530.84
2022-10-11T19:03:45.448Z,95530.00
2022-10-11T19:06:14.949Z,95518.75
2022-10-11T19:08:41.502Z,95517.47
2022-10-11T19:11:09.190Z,95516.31
2022-10-11T19:13:36.045Z,95528.44
2022-10-11T19:16:07.599Z,95509.56
2022-10-11T19:18:34.601Z,95513.41
2022-10-11T19:21:02.729Z,95527.47
2022-10-11T19:23:38.120Z,95518.09
2022-10-11T19:26:09.485Z,95526.66
2022-10-11T19:28:36.226Z,95545.56
2022-10-11T19:31:08.914Z,95538.81
2022-10-11T19:33:36.159Z,95541.06
2022-10-11T19:36:05.981Z,95552.34
2022-10-11T19:38:33.391Z,95555.25
2022-10-11T19:41:00.653Z,95562.03
2022-10-11T19:43:27.986Z,95557.28
2022-10-11T19:46:01.901Z,95561.56
2022-10-11T19:48:28.791Z,95554.91
2022-10-11T19:51:10.000Z,95555.25
2022-10-11T19:53:36.519Z,95566.41
2022-10-11T19:56:06.119Z,95562.63
2022-10-11T19:58:32.650Z,95564.66
2022-10-11T20:01:07.024Z,95570.00
2022-10-11T20:03:33.975Z,95562.81
2022-10-11T20:06:01.948Z,95562.81
2022-10-11T20:08:28.572Z,95567.38
2022-10-11T20:10:55.124Z,95572.81
2022-10-11T20:13:21.691Z,95573.19
2022-10-11T20:15:48.238Z,95582.16
2022-10-11T20:18:14.955Z,95569.53
2022-10-11T20:20:54.131Z,95577.56
2022-10-11T20:23:25.142Z,95579.91
2022-10-11T20:26:03.892Z,95580.41
2022-10-11T20:28:32.043Z,95573.44
2022-10-11T20:31:00.346Z,95581.38
2022-10-11T20:33:28.516Z,95578.28
2022-10-11T20:36:03.127Z,95579.50
2022-10-11T20:38:30.810Z,95587.34
2022-10-11T20:40:58.003Z,95594.94
2022-10-11T20:43:25.031Z,95598.16
2022-10-11T20:46:03.169Z,95583.13
2022-10-11T20:48:30.758Z,95581.38
2022-10-11T20:50:57.456Z,95584.91
2022-10-11T20:53:24.645Z,95583.88
2022-10-11T20:55:54.329Z,95584.66
2022-10-11T20:58:22.006Z,95586.53
2022-10-11T21:00:48.763Z,95581.84
2022-10-11T21:03:15.925Z,95578.16
2022-10-11T21:05:42.464Z,95584.69
2022-10-11T21:08:09.483Z,95589.63
2022-10-11T21:10:36.077Z,95592.22
2022-10-11T21:13:02.711Z,95590.66
2022-10-11T21:15:30.657Z,95587.69
2022-10-11T21:17:57.278Z,95592.13
2022-10-11T21:20:24.559Z,95580.56
2022-10-11T21:22:51.292Z,95595.59
2022-10-11T21:25:18.983Z,95593.00
2022-10-11T21:27:45.409Z,95594.28
2022-10-11T21:30:11.926Z,95598.16
2022-10-11T21:32:38.463Z,95586.84
2022-10-11T21:35:05.017Z,95592.25
2022-10-11T21:37:31.933Z,95595.94
2022-10-11T21:40:00.521Z,95596.06
2022-10-11T21:42:29.533Z,95594.88
2022-10-11T21:44:56.198Z,95605.75
2022-10-11T21:47:22.733Z,95599.94
2022-10-11T21:49:49.246Z,95589.34
2022-10-11T21:52:15.900Z,95594.13
2022-10-11T21:54:42.381Z,95591.72
2022-10-11T21:57:08.978Z,95586.38
2022-10-11T21:59:35.433Z,95595.44
2022-10-11T22:02:02.348Z,95593.81
2022-10-11T22:04:28.990Z,95592.13
2022-10-11T22:06:55.535Z,95586.56
2022-10-11T22:09:22.265Z,95589.59
2022-10-11T22:11:48.849Z,95595.94
2022-10-11T22:14:15.289Z,95590.91
2022-10-11T22:16:41.740Z,95585.41
2022-10-11T22:19:08.255Z,95586.19
2022-10-11T22:21:34.726Z,95593.50
2022-10-11T22:24:01.319Z,95587.44
2022-10-11T22:26:29.628Z,95603.19
2022-10-11T22:28:57.201Z,95596.91
2022-10-11T22:31:23.744Z,95589.91
2022-10-11T22:33:54.552Z,95598.03
2022-10-11T22:36:21.017Z,95600.50
2022-10-11T22:38:47.510Z,95593.03
2022-10-11T22:41:14.107Z,95598.03
2022-10-11T22:43:40.597Z,95604.09
2022-10-11T22:46:07.755Z,95598.31
2022-10-11T22:48:34.347Z,95600.66
2022-10-11T22:51:01.373Z,95604.09
2022-10-11T22:53:27.911Z,95601.56
2022-10-11T22:55:54.508Z,95605.44
2022-10-11T22:58:21.232Z,95609.47
2022-10-11T23:00:48.507Z,95613.22
2022-10-11T23:03:16.044Z,95620.66
2022-10-11T23:05:42.754Z,95614.25
2022-10-11T23:08:09.906Z,95616.59
2022-10-11T23:10:40.045Z,95622.75
2022-10-11T23:13:06.585Z,95618.72
2022-10-11T23:15:33.094Z,95612.09
2022-10-11T23:17:59.637Z,95614.84
2022-10-11T23:20:26.119Z,95616.59
2022-10-11T23:22:52.533Z,95618.72
2022-10-11T23:25:19.092Z,95621.03
2022-10-11T23:27:45.528Z,95618.47
2022-10-11T23:30:12.740Z,95616.94
2022-10-11T23:32:39.184Z,95624.66
2022-10-11T23:35:06.018Z,95624.44
2022-10-11T23:37:32.471Z,95615.66
2022-10-11T23:39:59.025Z,95618.97
2022-10-11T23:42:25.551Z,95623.06
2022-10-11T23:44:52.010Z,95623.72
2022-10-11T23:47:18.590Z,95629.56
2022-10-11T23:49:45.095Z,95626.63
2022-10-11T23:52:11.555Z,95632.28
2022-10-11T23:54:38.003Z,95621.63
2022-10-11T23:57:04.460Z,95629.47
2022-10-11T23:59:31.022Z,95623.69
